sensor_id;sensor_type;location;lat;lon;timestamp;pressure;altitude;pressure_sealevel;temperature;humidity
40592;BME280;26301;42.832;23.918;2022-12-18T00:01:33;93833.03;;;7.70;100.00
40592;BME280;26301;42.832;23.918;2022-12-18T00:04:00;93816.47;;;7.59;100.00
40592;BME280;26301;42.832;23.918;2022-12-18T00:06:28;93819.03;;;7.59;100.00
40592;BME280;26301;42.832;23.918;2022-12-18T00:08:55;93837.00;;;7.72;100.00
40592;BME280;26301;42.832;23.918;2022-12-18T00:11:24;93850.84;;;7.78;100.00
40592;BME280;26301;42.832;23.918;2022-12-18T00:13:51;93837.78;;;7.73;100.00
40592;BME280;26301;42.832;23.918;2022-12-18T00:16:22;93846.88;;;7.82;100.00
40592;BME280;26301;42.832;23.918;2022-12-18T00:18:49;93823.38;;;7.65;100.00
40592;BME280;26301;42.832;23.918;2022-12-18T00:21:15;93821.59;;;7.66;100.00
40592;BME280;26301;42.832;23.918;2022-12-18T00:23:42;93852.22;;;7.87;100.00
40592;BME280;26301;42.832;23.918;2022-12-18T00:26:19;93858.34;;;7.86;100.00
40592;BME280;26301;42.832;23.918;2022-12-18T00:28:45;93833.66;;;7.65;100.00
40592;BME280;26301;42.832;23.918;2022-12-18T00:31:14;93853.81;;;7.75;100.00
40592;BME280;26301;42.832;23.918;2022-12-18T00:33:40;93842.16;;;7.66;100.00
40592;BME280;26301;42.832;23.918;2022-12-18T00:36:13;93869.81;;;7.90;100.00
40592;BME280;26301;42.832;23.918;2022-12-18T00:38:40;93866.66;;;7.88;100.00
40592;BME280;26301;42.832;23.918;2022-12-18T00:41:09;93869.22;;;7.82;100.00
40592;BME280;26301;42.832;23.918;2022-12-18T00:43:35;93834.06;;;7.55;100.00
40592;BME280;26301;42.832;23.918;2022-12-18T00:46:01;93872.81;;;7.81;100.00
40592;BME280;26301;42.832;23.918;2022-12-18T00:48:26;93858.97;;;7.68;100.00
40592;BME280;26301;42.832;23.918;2022-12-18T00:50:52;93865.88;;;7.74;100.00
40592;BME280;26301;42.832;23.918;2022-12-18T00:53:18;93853.41;;;7.58;100.00
40592;BME280;26301;42.832;23.918;2022-12-18T00:55:44;93864.72;;;7.70;100.00
40592;BME280;26301;42.832;23.918;2022-12-18T00:58:11;93852.44;;;7.66;100.00
40592;BME280;26301;42.832;23.918;2022-12-18T01:00:37;93871.00;;;7.81;100.00
40592;BME280;26301;42.832;23.918;2022-12-18T01:03:04;93873.81;;;7.79;100.00
40592;BME280;26301;42.832;23.918;2022-12-18T01:05:29;93869.44;;;7.80;100.00
40592;BME280;26301;42.832;23.918;2022-12-18T01:07:55;93873.59;;;7.81;100.00
40592;BME280;26301;42.832;23.918;2022-12-18T01:10:23;93847.28;;;7.66;100.00
40592;BME280;26301;42.832;23.918;2022-12-18T01:12:49;93872.00;;;7.80;100.00
40592;BME280;26301;42.832;23.918;2022-12-18T01:15:17;93847.28;;;7.66;100.00
40592;BME280;26301;42.832;23.918;2022-12-18T01:17:42;93828.94;;;7.55;100.00
40592;BME280;26301;42.832;23.918;2022-12-18T01:20:10;93844.72;;;7.66;100.00
40592;BME280;26301;42.832;23.918;2022-12-18T01:22:36;93868.44;;;7.81;100.00
40592;BME280;26301;42.832;23.918;2022-12-18T01:25:04;93849.47;;;7.69;100.00
40592;BME280;26301;42.832;23.918;2022-12-18T01:27:30;93857.00;;;7.70;100.00
40592;BME280;26301;42.832;23.918;2022-12-18T01:29:55;93865.47;;;7.77;100.00
40592;BME280;26301;42.832;23.918;2022-12-18T01:32:21;93875.34;;;7.94;100.00
40592;BME280;26301;42.832;23.918;2022-12-18T01:34:47;93854.97;;;7.79;100.00
40592;BME280;26301;42.832;23.918;2022-12-18T01:37:13;93880.50;;;7.87;100.00
40592;BME280;26301;42.832;23.918;2022-12-18T01:39:39;93887.66;;;7.85;100.00
40592;BME280;26301;42.832;23.918;2022-12-18T01:42:10;93891.59;;;7.68;100.00
40592;BME280;26301;42.832;23.918;2022-12-18T01:47:25;93901.09;;;7.47;100.00
40592;BME280;26301;42.832;23.918;2022-12-18T01:49:52;93900.69;;;7.37;100.00
40592;BME280;26301;42.832;23.918;2022-12-18T01:52:18;93892.94;;;7.10;100.00
40592;BME280;26301;42.832;23.918;2022-12-18T01:54:46;93900.63;;;6.97;100.00
40592;BME280;26301;42.832;23.918;2022-12-18T01:57:13;93881.81;;;6.83;100.00
40592;BME280;26301;42.832;23.918;2022-12-18T01:59:39;93885.97;;;6.84;100.00
40592;BME280;26301;42.832;23.918;2022-12-18T02:02:07;93881.00;;;6.76;100.00
40592;BME280;26301;42.832;23.918;2022-12-18T02:04:33;93869.13;;;6.69;100.00
40592;BME280;26301;42.832;23.918;2022-12-18T02:12:21;93872.03;;;6.52;100.00
40592;BME280;26301;42.832;23.918;2022-12-18T02:17:57;93925.38;;;6.57;100.00
40592;BME280;26301;42.832;23.918;2022-12-18T02:20:29;93901.22;;;6.38;100.00
40592;BME280;26301;42.832;23.918;2022-12-18T02:26:19;93925.25;;;6.30;100.00
40592;BME280;26301;42.832;23.918;2022-12-18T02:28:55;93891.50;;;5.99;100.00
40592;BME280;26301;42.832;23.918;2022-12-18T02:31:25;93913.47;;;6.08;100.00
40592;BME280;26301;42.832;23.918;2022-12-18T02:33:54;93928.31;;;6.19;100.00
40592;BME280;26301;42.832;23.918;2022-12-18T02:36:22;93942.56;;;6.22;100.00
40592;BME280;26301;42.832;23.918;2022-12-18T02:38:49;93914.81;;;6.04;100.00
40592;BME280;26301;42.832;23.918;2022-12-18T02:41:16;93914.00;;;5.97;100.00
40592;BME280;26301;42.832;23.918;2022-12-18T02:43:56;93917.00;;;6.07;100.00
40592;BME280;26301;42.832;23.918;2022-12-18T02:46:38;93872.38;;;5.73;100.00
40592;BME280;26301;42.832;23.918;2022-12-18T02:55:27;93958.78;;;6.29;100.00
40592;BME280;26301;42.832;23.918;2022-12-18T02:58:01;93957.81;;;6.30;100.00
40592;BME280;26301;42.832;23.918;2022-12-18T03:03:41;93963.44;;;6.18;100.00
40592;BME280;26301;42.832;23.918;2022-12-18T03:06:32;93926.88;;;5.82;100.00
40592;BME280;26301;42.832;23.918;2022-12-18T03:09:02;93978.06;;;6.18;100.00
40592;BME280;26301;42.832;23.918;2022-12-18T03:11:32;93980.94;;;6.08;100.00
40592;BME280;26301;42.832;23.918;2022-12-18T03:14:20;93982.53;;;6.09;100.00
40592;BME280;26301;42.832;23.918;2022-12-18T03:16:49;93947.63;;;5.87;100.00
40592;BME280;26301;42.832;23.918;2022-12-18T03:19:21;93987.25;;;6.06;100.00
40592;BME280;26301;42.832;23.918;2022-12-18T03:21:54;93979.91;;;6.03;100.00
40592;BME280;26301;42.832;23.918;2022-12-18T03:24:21;93986.00;;;6.02;100.00
40592;BME280;26301;42.832;23.918;2022-12-18T03:26:54;93987.41;;;6.04;100.00
40592;BME280;26301;42.832;23.918;2022-12-18T03:29:27;93977.53;;;6.01;100.00
40592;BME280;26301;42.832;23.918;2022-12-18T03:32:03;93979.31;;;6.01;100.00
40592;BME280;26301;42.832;23.918;2022-12-18T03:34:34;94009.75;;;6.10;100.00
40592;BME280;26301;42.832;23.918;2022-12-18T03:37:02;93975.38;;;5.83;100.00
40592;BME280;26301;42.832;23.918;2022-12-18T03:39:29;93986.31;;;5.92;100.00
40592;BME280;26301;42.832;23.918;2022-12-18T03:45:05;94018.44;;;6.09;100.00
40592;BME280;26301;42.832;23.918;2022-12-18T03:47:45;94022.03;;;6.15;100.00
40592;BME280;26301;42.832;23.918;2022-12-18T03:50:22;94005.38;;;6.04;100.00
40592;BME280;26301;42.832;23.918;2022-12-18T03:52:58;94024.19;;;6.11;100.00
40592;BME280;26301;42.832;23.918;2022-12-18T03:55:28;94024.59;;;6.15;100.00
40592;BME280;26301;42.832;23.918;2022-12-18T03:57:57;94033.19;;;6.29;100.00
40592;BME280;26301;42.832;23.918;2022-12-18T04:00:23;94015.38;;;6.21;100.00
40592;BME280;26301;42.832;23.918;2022-12-18T04:02:54;93990.59;;;6.06;100.00
40592;BME280;26301;42.832;23.918;2022-12-18T04:05:21;94032.63;;;6.33;100.00
40592;BME280;26301;42.832;23.918;2022-12-18T04:07:49;94003.41;;;6.06;100.00
40592;BME280;26301;42.832;23.918;2022-12-18T04:10:18;94040.66;;;6.24;100.00
40592;BME280;26301;42.832;23.918;2022-12-18T04:12:44;94042.06;;;6.26;100.00
40592;BME280;26301;42.832;23.918;2022-12-18T04:15:10;94031.72;;;6.19;100.00
40592;BME280;26301;42.832;23.918;2022-12-18T04:17:37;94044.41;;;6.28;100.00
40592;BME280;26301;42.832;23.918;2022-12-18T04:20:03;94018.25;;;6.11;100.00
40592;BME280;26301;42.832;23.918;2022-12-18T04:22:29;94010.88;;;6.01;100.00
40592;BME280;26301;42.832;23.918;2022-12-18T04:24:55;94052.03;;;6.14;100.00
40592;BME280;26301;42.832;23.918;2022-12-18T04:27:21;94047.44;;;6.10;100.00
40592;BME280;26301;42.832;23.918;2022-12-18T04:29:46;94027.97;;;5.94;100.00
40592;BME280;26301;42.832;23.918;2022-12-18T04:32:12;94070.03;;;6.21;100.00
40592;BME280;26301;42.832;23.918;2022-12-18T04:34:38;94004.28;;;5.70;100.00
40592;BME280;26301;42.832;23.918;2022-12-18T04:37:04;94047.03;;;6.06;100.00
40592;BME280;26301;42.832;23.918;2022-12-18T04:39:29;94075.66;;;6.10;100.00
40592;BME280;26301;42.832;23.918;2022-12-18T04:41:55;94043.28;;;5.87;100.00
40592;BME280;26301;42.832;23.918;2022-12-18T04:44:20;94034.06;;;5.71;100.00
40592;BME280;26301;42.832;23.918;2022-12-18T04:46:46;94079.75;;;6.04;100.00
40592;BME280;26301;42.832;23.918;2022-12-18T04:49:12;94061.13;;;5.95;100.00
40592;BME280;26301;42.832;23.918;2022-12-18T04:51:38;94051.69;;;5.96;100.00
40592;BME280;26301;42.832;23.918;2022-12-18T04:54:04;94049.38;;;5.86;100.00
40592;BME280;26301;42.832;23.918;2022-12-18T04:56:31;94068.91;;;6.02;100.00
40592;BME280;26301;42.832;23.918;2022-12-18T04:58:57;94091.41;;;6.07;100.00
40592;BME280;26301;42.832;23.918;2022-12-18T05:01:23;94101.97;;;5.97;100.00
40592;BME280;26301;42.832;23.918;2022-12-18T05:03:50;94108.94;;;6.03;100.00
40592;BME280;26301;42.832;23.918;2022-12-18T05:06:16;94102.59;;;5.99;100.00
40592;BME280;26301;42.832;23.918;2022-12-18T05:08:42;94065.91;;;5.62;100.00
40592;BME280;26301;42.832;23.918;2022-12-18T05:11:10;94103.22;;;5.86;100.00
40592;BME280;26301;42.832;23.918;2022-12-18T05:13:39;94115.44;;;5.99;100.00
40592;BME280;26301;42.832;23.918;2022-12-18T05:16:08;94122.75;;;6.02;100.00
40592;BME280;26301;42.832;23.918;2022-12-18T05:18:37;94123.13;;;5.99;100.00
40592;BME280;26301;42.832;23.918;2022-12-18T05:21:03;94130.63;;;6.01;100.00
40592;BME280;26301;42.832;23.918;2022-12-18T05:23:30;94094.31;;;5.82;100.00
40592;BME280;26301;42.832;23.918;2022-12-18T05:26:00;94124.63;;;5.93;100.00
40592;BME280;26301;42.832;23.918;2022-12-18T05:28:28;94142.28;;;6.03;100.00
40592;BME280;26301;42.832;23.918;2022-12-18T05:30:57;94131.25;;;5.88;100.00
40592;BME280;26301;42.832;23.918;2022-12-18T05:33:24;94144.97;;;5.95;100.00
40592;BME280;26301;42.832;23.918;2022-12-18T05:35:55;94146.94;;;5.93;100.00
40592;BME280;26301;42.832;23.918;2022-12-18T05:38:21;94144.25;;;5.86;100.00
40592;BME280;26301;42.832;23.918;2022-12-18T05:40:49;94142.03;;;5.83;100.00
40592;BME280;26301;42.832;23.918;2022-12-18T05:43:15;94135.53;;;5.81;100.00
40592;BME280;26301;42.832;23.918;2022-12-18T05:45:40;94148.22;;;5.89;100.00
40592;BME280;26301;42.832;23.918;2022-12-18T05:48:07;94161.31;;;5.94;100.00
40592;BME280;26301;42.832;23.918;2022-12-18T05:50:37;94139.06;;;5.80;100.00
40592;BME280;26301;42.832;23.918;2022-12-18T05:53:04;94130.56;;;5.79;100.00
40592;BME280;26301;42.832;23.918;2022-12-18T05:55:38;94145.06;;;5.87;100.00
40592;BME280;26301;42.832;23.918;2022-12-18T05:58:05;94152.28;;;5.98;100.00
40592;BME280;26301;42.832;23.918;2022-12-18T06:00:32;94186.56;;;6.12;100.00
40592;BME280;26301;42.832;23.918;2022-12-18T06:02:58;94195.31;;;6.17;100.00
40592;BME280;26301;42.832;23.918;2022-12-18T06:05:24;94196.72;;;6.20;100.00
40592;BME280;26301;42.832;23.918;2022-12-18T06:07:50;94153.97;;;5.91;100.00
40592;BME280;26301;42.832;23.918;2022-12-18T06:10:15;94199.03;;;6.15;100.00
40592;BME280;26301;42.832;23.918;2022-12-18T06:12:41;94215.56;;;6.12;100.00
40592;BME280;26301;42.832;23.918;2022-12-18T06:15:07;94208.06;;;6.11;100.00
40592;BME280;26301;42.832;23.918;2022-12-18T06:17:34;94217.78;;;6.15;100.00
40592;BME280;26301;42.832;23.918;2022-12-18T06:19:59;94215.47;;;6.21;100.00
40592;BME280;26301;42.832;23.918;2022-12-18T06:22:25;94223.53;;;6.17;100.00
40592;BME280;26301;42.832;23.918;2022-12-18T06:24:51;94220.44;;;6.07;100.00
40592;BME280;26301;42.832;23.918;2022-12-18T06:27:17;94202.88;;;5.74;100.00
40592;BME280;26301;42.832;23.918;2022-12-18T06:29:43;94172.25;;;5.52;100.00
40592;BME280;26301;42.832;23.918;2022-12-18T06:32:08;94227.28;;;5.85;100.00
40592;BME280;26301;42.832;23.918;2022-12-18T06:34:36;94207.50;;;5.64;100.00
40592;BME280;26301;42.832;23.918;2022-12-18T06:37:02;94224.38;;;5.73;100.00
40592;BME280;26301;42.832;23.918;2022-12-18T06:39:28;94236.84;;;5.77;100.00
40592;BME280;26301;42.832;23.918;2022-12-18T06:41:54;94255.13;;;5.73;100.00
40592;BME280;26301;42.832;23.918;2022-12-18T06:44:19;94263.09;;;5.79;100.00
40592;BME280;26301;42.832;23.918;2022-12-18T06:46:45;94243.28;;;5.72;100.00
40592;BME280;26301;42.832;23.918;2022-12-18T06:49:11;94254.34;;;5.88;100.00
40592;BME280;26301;42.832;23.918;2022-12-18T06:51:37;94208.13;;;5.52;100.00
40592;BME280;26301;42.832;23.918;2022-12-18T06:54:03;94251.78;;;5.73;100.00
40592;BME280;26301;42.832;23.918;2022-12-18T06:56:50;94245.78;;;5.66;100.00
40592;BME280;26301;42.832;23.918;2022-12-18T06:59:42;94270.78;;;5.79;100.00
40592;BME280;26301;42.832;23.918;2022-12-18T07:05:41;94273.44;;;5.70;100.00
40592;BME280;26301;42.832;23.918;2022-12-18T07:08:08;94262.47;;;5.62;100.00
40592;BME280;26301;42.832;23.918;2022-12-18T07:10:39;94275.22;;;5.70;100.00
40592;BME280;26301;42.832;23.918;2022-12-18T07:13:05;94274.84;;;5.58;100.00
40592;BME280;26301;42.832;23.918;2022-12-18T07:15:31;94281.66;;;5.66;100.00
40592;BME280;26301;42.832;23.918;2022-12-18T07:17:56;94213.88;;;5.24;100.00
40592;BME280;26301;42.832;23.918;2022-12-18T07:20:22;94285.03;;;5.66;100.00
40592;BME280;26301;42.832;23.918;2022-12-18T07:22:48;94278.28;;;5.65;100.00
40592;BME280;26301;42.832;23.918;2022-12-18T07:25:14;94289.09;;;5.61;100.00
40592;BME280;26301;42.832;23.918;2022-12-18T07:27:39;94283.16;;;5.60;100.00
40592;BME280;26301;42.832;23.918;2022-12-18T07:30:09;94290.22;;;5.58;100.00
40592;BME280;26301;42.832;23.918;2022-12-18T07:32:35;94293.22;;;5.47;100.00
40592;BME280;26301;42.832;23.918;2022-12-18T07:35:06;94278.44;;;5.34;100.00
40592;BME280;26301;42.832;23.918;2022-12-18T07:37:32;94290.66;;;5.47;100.00
40592;BME280;26301;42.832;23.918;2022-12-18T07:39:58;94251.22;;;5.18;100.00
40592;BME280;26301;42.832;23.918;2022-12-18T07:42:23;94308.72;;;5.54;100.00
40592;BME280;26301;42.832;23.918;2022-12-18T07:44:58;94301.53;;;5.49;100.00
40592;BME280;26301;42.832;23.918;2022-12-18T07:47:25;94276.97;;;5.40;100.00
40592;BME280;26301;42.832;23.918;2022-12-18T07:49:51;94278.19;;;5.44;100.00
40592;BME280;26301;42.832;23.918;2022-12-18T07:52:17;94295.53;;;5.57;100.00
40592;BME280;26301;42.832;23.918;2022-12-18T07:54:44;94297.53;;;5.46;100.00
40592;BME280;26301;42.832;23.918;2022-12-18T07:57:10;94276.44;;;5.30;100.00
40592;BME280;26301;42.832;23.918;2022-12-18T07:59:36;94314.69;;;5.46;100.00
40592;BME280;26301;42.832;23.918;2022-12-18T08:02:02;94313.38;;;5.50;100.00
40592;BME280;26301;42.832;23.918;2022-12-18T08:04:28;94311.84;;;5.41;100.00
40592;BME280;26301;42.832;23.918;2022-12-18T08:06:54;94288.16;;;5.24;100.00
40592;BME280;26301;42.832;23.918;2022-12-18T08:09:38;94324.09;;;5.54;100.00
40592;BME280;26301;42.832;23.918;2022-12-18T08:12:07;94311.34;;;5.45;100.00
40592;BME280;26301;42.832;23.918;2022-12-18T08:14:33;94246.19;;;4.72;96.90
40592;BME280;26301;42.832;23.918;2022-12-18T08:16:59;94219.38;;;4.60;99.21
40592;BME280;26301;42.832;23.918;2022-12-18T08:19:25;94346.69;;;5.50;97.06
40592;BME280;26301;42.832;23.918;2022-12-18T08:21:50;94339.25;;;5.40;90.13
40592;BME280;26301;42.832;23.918;2022-12-18T08:24:40;94333.00;;;5.20;92.78
40592;BME280;26301;42.832;23.918;2022-12-18T08:27:06;94356.72;;;5.37;93.56
40592;BME280;26301;42.832;23.918;2022-12-18T08:29:41;94350.91;;;5.43;95.21
40592;BME280;26301;42.832;23.918;2022-12-18T08:32:07;94348.25;;;5.36;93.16
40592;BME280;26301;42.832;23.918;2022-12-18T08:34:36;94347.34;;;5.29;91.40
40592;BME280;26301;42.832;23.918;2022-12-18T08:37:01;94348.31;;;5.28;94.38
40592;BME280;26301;42.832;23.918;2022-12-18T08:39:27;94354.06;;;5.30;96.97
40592;BME280;26301;42.832;23.918;2022-12-18T08:41:53;94347.34;;;5.29;98.08
40592;BME280;26301;42.832;23.918;2022-12-18T08:44:37;94366.28;;;5.43;97.19
40592;BME280;26301;42.832;23.918;2022-12-18T08:47:03;94361.81;;;5.45;98.14
40592;BME280;26301;42.832;23.918;2022-12-18T08:49:29;94353.28;;;5.44;98.72
40592;BME280;26301;42.832;23.918;2022-12-18T08:51:55;94360.13;;;5.52;98.79
40592;BME280;26301;42.832;23.918;2022-12-18T08:54:22;94334.91;;;5.41;99.60
40592;BME280;26301;42.832;23.918;2022-12-18T08:56:49;94360.66;;;5.62;98.85
40592;BME280;26301;42.832;23.918;2022-12-18T08:59:18;94339.19;;;5.48;98.38
40592;BME280;26301;42.832;23.918;2022-12-18T09:01:45;94364.75;;;5.71;98.85
40592;BME280;26301;42.832;23.918;2022-12-18T09:04:11;94323.16;;;5.46;99.23
40592;BME280;26301;42.832;23.918;2022-12-18T09:06:37;94354.13;;;5.74;98.75
40592;BME280;26301;42.832;23.918;2022-12-18T09:09:04;94278.78;;;5.31;98.67
40592;BME280;26301;42.832;23.918;2022-12-18T09:11:31;94367.13;;;5.96;96.42
40592;BME280;26301;42.832;23.918;2022-12-18T09:13:57;94279.06;;;5.36;97.58
40592;BME280;26301;42.832;23.918;2022-12-18T09:16:30;94365.50;;;5.95;97.19
40592;BME280;26301;42.832;23.918;2022-12-18T09:18:57;94362.59;;;5.98;97.30
40592;BME280;26301;42.832;23.918;2022-12-18T09:21:28;94376.75;;;6.09;96.20
40592;BME280;26301;42.832;23.918;2022-12-18T09:23:55;94381.97;;;6.15;95.77
40592;BME280;26301;42.832;23.918;2022-12-18T09:26:22;94381.44;;;6.20;96.21
40592;BME280;26301;42.832;23.918;2022-12-18T09:28:48;94357.22;;;6.08;96.26
40592;BME280;26301;42.832;23.918;2022-12-18T09:31:14;94376.47;;;6.18;95.95
40592;BME280;26301;42.832;23.918;2022-12-18T09:33:40;94377.09;;;6.21;95.55
40592;BME280;26301;42.832;23.918;2022-12-18T09:36:09;94385.75;;;6.34;95.29
40592;BME280;26301;42.832;23.918;2022-12-18T09:38:35;94379.22;;;6.32;92.89
40592;BME280;26301;42.832;23.918;2022-12-18T09:41:35;94392.31;;;6.37;92.77
40592;BME280;26301;42.832;23.918;2022-12-18T09:44:36;94383.88;;;6.43;92.62
40592;BME280;26301;42.832;23.918;2022-12-18T09:49:38;94367.78;;;6.34;91.19
40592;BME280;26301;42.832;23.918;2022-12-18T09:52:17;94379.09;;;6.40;91.00
40592;BME280;26301;42.832;23.918;2022-12-18T09:57:47;94394.94;;;6.58;90.99
40592;BME280;26301;42.832;23.918;2022-12-18T10:00:21;94383.88;;;6.58;88.57
40592;BME280;26301;42.832;23.918;2022-12-18T10:03:03;94374.06;;;6.47;88.71
40592;BME280;26301;42.832;23.918;2022-12-18T10:09:01;94392.75;;;6.77;88.21
40592;BME280;26301;42.832;23.918;2022-12-18T10:11:40;94388.50;;;6.84;83.03
40592;BME280;26301;42.832;23.918;2022-12-18T10:14:23;94384.97;;;6.85;77.25
40592;BME280;26301;42.832;23.918;2022-12-18T10:27:22;94394.94;;;6.58;58.78
40592;BME280;26301;42.832;23.918;2022-12-18T10:29:49;94396.28;;;6.54;59.98
40592;BME280;26301;42.832;23.918;2022-12-18T10:32:21;94386.16;;;6.53;61.71
40592;BME280;26301;42.832;23.918;2022-12-18T10:34:49;94378.66;;;6.51;61.50
40592;BME280;26301;42.832;23.918;2022-12-18T10:37:21;94374.88;;;6.47;64.88
40592;BME280;26301;42.832;23.918;2022-12-18T10:40:11;94386.63;;;6.56;65.14
40592;BME280;26301;42.832;23.918;2022-12-18T10:42:37;94387.78;;;6.54;69.22
40592;BME280;26301;42.832;23.918;2022-12-18T10:45:21;94388.50;;;6.48;69.99
40592;BME280;26301;42.832;23.918;2022-12-18T10:47:49;94391.78;;;6.41;71.75
40592;BME280;26301;42.832;23.918;2022-12-18T10:50:32;94298.09;;;5.86;71.72
40592;BME280;26301;42.832;23.918;2022-12-18T10:53:03;94391.75;;;6.56;69.37
40592;BME280;26301;42.832;23.918;2022-12-18T10:55:34;94384.84;;;6.57;71.55
40592;BME280;26301;42.832;23.918;2022-12-18T11:01:15;94354.53;;;6.31;72.53
40592;BME280;26301;42.832;23.918;2022-12-18T11:06:23;94388.06;;;6.44;69.41
40592;BME280;26301;42.832;23.918;2022-12-18T11:09:18;94334.78;;;6.16;71.89
40592;BME280;26301;42.832;23.918;2022-12-18T11:11:53;94381.59;;;6.33;72.95
40592;BME280;26301;42.832;23.918;2022-12-18T11:14:28;94384.25;;;6.40;73.16
40592;BME280;26301;42.832;23.918;2022-12-18T11:16:59;94369.13;;;6.30;69.42
40592;BME280;26301;42.832;23.918;2022-12-18T11:19:35;94392.06;;;6.32;67.37
40592;BME280;26301;42.832;23.918;2022-12-18T11:22:16;94366.41;;;6.17;68.89
40592;BME280;26301;42.832;23.918;2022-12-18T11:24:53;94357.81;;;6.10;70.72
40592;BME280;26301;42.832;23.918;2022-12-18T11:27:19;94360.56;;;5.93;68.54
40592;BME280;26301;42.832;23.918;2022-12-18T11:29:45;94389.38;;;6.10;68.39
40592;BME280;26301;42.832;23.918;2022-12-18T11:32:37;94395.78;;;6.14;70.13
40592;BME280;26301;42.832;23.918;2022-12-18T11:38:00;94400.53;;;6.17;71.25
40592;BME280;26301;42.832;23.918;2022-12-18T11:40:36;94391.00;;;6.11;69.26
40592;BME280;26301;42.832;23.918;2022-12-18T11:43:20;94339.38;;;5.91;63.49
40592;BME280;26301;42.832;23.918;2022-12-18T11:48:56;94363.84;;;6.02;62.56
40592;BME280;26301;42.832;23.918;2022-12-18T11:51:48;94298.34;;;5.47;62.75
40592;BME280;26301;42.832;23.918;2022-12-18T11:54:16;94412.72;;;6.01;63.27
40592;BME280;26301;42.832;23.918;2022-12-18T11:59:59;94391.94;;;6.10;60.43
40592;BME280;26301;42.832;23.918;2022-12-18T12:08:18;94371.13;;;5.90;61.26
40592;BME280;26301;42.832;23.918;2022-12-18T12:32:11;94394.22;;;5.90;64.39
40592;BME280;26301;42.832;23.918;2022-12-18T12:39:49;94350.34;;;5.70;62.33
40592;BME280;26301;42.832;23.918;2022-12-18T12:42:40;94318.03;;;5.46;61.44
40592;BME280;26301;42.832;23.918;2022-12-18T12:48:33;94375.91;;;5.79;61.43
40592;BME280;26301;42.832;23.918;2022-12-18T12:51:07;94377.13;;;5.83;60.90
40592;BME280;26301;42.832;23.918;2022-12-18T12:53:36;94397.25;;;5.94;63.77
40592;BME280;26301;42.832;23.918;2022-12-18T12:56:04;94410.16;;;6.01;63.59
40592;BME280;26301;42.832;23.918;2022-12-18T13:03:39;94419.13;;;6.05;63.29
40592;BME280;26301;42.832;23.918;2022-12-18T13:09:00;94421.22;;;6.16;60.54
40592;BME280;26301;42.832;23.918;2022-12-18T13:11:46;94417.78;;;6.09;60.86
40592;BME280;26301;42.832;23.918;2022-12-18T13:14:36;94419.72;;;6.07;60.56
40592;BME280;26301;42.832;23.918;2022-12-18T13:17:20;94399.94;;;5.92;64.83
40592;BME280;26301;42.832;23.918;2022-12-18T13:20:02;94403.00;;;5.96;64.30
40592;BME280;26301;42.832;23.918;2022-12-18T13:22:34;94425.03;;;6.05;62.76
40592;BME280;26301;42.832;23.918;2022-12-18T13:25:00;94392.88;;;5.80;63.63
40592;BME280;26301;42.832;23.918;2022-12-18T13:27:57;94440.09;;;5.85;64.12
40592;BME280;26301;42.832;23.918;2022-12-18T13:46:04;94441.22;;;5.83;61.39
40592;BME280;26301;42.832;23.918;2022-12-18T13:48:36;94406.25;;;5.52;62.83
40592;BME280;26301;42.832;23.918;2022-12-18T13:53:43;94450.31;;;5.70;62.82
40592;BME280;26301;42.832;23.918;2022-12-18T13:56:15;94416.41;;;5.45;66.14
40592;BME280;26301;42.832;23.918;2022-12-18T13:58:41;94452.44;;;5.67;67.90
40592;BME280;26301;42.832;23.918;2022-12-18T14:01:22;94410.13;;;5.48;68.98
40592;BME280;26301;42.832;23.918;2022-12-18T14:03:48;94440.41;;;5.67;68.99
40592;BME280;26301;42.832;23.918;2022-12-18T14:06:16;94451.63;;;5.66;69.61
40592;BME280;26301;42.832;23.918;2022-12-18T14:08:43;94446.31;;;5.68;69.55
40592;BME280;26301;42.832;23.918;2022-12-18T14:11:22;94454.00;;;5.68;70.58
40592;BME280;26301;42.832;23.918;2022-12-18T14:13:49;94426.47;;;5.47;71.70
40592;BME280;26301;42.832;23.918;2022-12-18T14:16:16;94456.06;;;5.72;72.63
40592;BME280;26301;42.832;23.918;2022-12-18T14:18:46;94449.69;;;5.68;72.95
40592;BME280;26301;42.832;23.918;2022-12-18T14:21:32;94466.50;;;5.71;72.57
40592;BME280;26301;42.832;23.918;2022-12-18T14:24:05;94442.06;;;5.60;72.72
40592;BME280;26301;42.832;23.918;2022-12-18T14:26:32;94425.84;;;5.45;73.26
40592;BME280;26301;42.832;23.918;2022-12-18T14:29:00;94465.94;;;5.61;74.96
40592;BME280;26301;42.832;23.918;2022-12-18T14:31:31;94442.97;;;5.44;74.79
40592;BME280;26301;42.832;23.918;2022-12-18T14:33:57;94443.50;;;5.40;74.96
40592;BME280;26301;42.832;23.918;2022-12-18T14:36:27;94450.06;;;5.42;74.24
40592;BME280;26301;42.832;23.918;2022-12-18T14:38:57;94462.19;;;5.48;74.19
40592;BME280;26301;42.832;23.918;2022-12-18T14:41:24;94471.13;;;5.53;74.27
40592;BME280;26301;42.832;23.918;2022-12-18T14:43:53;94434.44;;;5.29;74.19
40592;BME280;26301;42.832;23.918;2022-12-18T14:46:36;94446.75;;;5.34;73.98
40592;BME280;26301;42.832;23.918;2022-12-18T14:49:05;94436.41;;;5.27;74.18
40592;BME280;26301;42.832;23.918;2022-12-18T14:51:58;94469.41;;;5.45;74.37
40592;BME280;26301;42.832;23.918;2022-12-18T14:54:27;94436.94;;;5.14;73.46
40592;BME280;26301;42.832;23.918;2022-12-18T14:57:23;94439.50;;;5.14;73.09
40592;BME280;26301;42.832;23.918;2022-12-18T14:59:50;94427.44;;;5.00;74.16
40592;BME280;26301;42.832;23.918;2022-12-18T15:02:22;94462.69;;;5.21;74.64
40592;BME280;26301;42.832;23.918;2022-12-18T15:04:59;94474.03;;;5.26;75.63
40592;BME280;26301;42.832;23.918;2022-12-18T15:07:24;94447.13;;;4.99;75.20
40592;BME280;26301;42.832;23.918;2022-12-18T15:10:13;94480.78;;;5.19;76.02
40592;BME280;26301;42.832;23.918;2022-12-18T15:12:48;94487.03;;;5.17;76.57
40592;BME280;26301;42.832;23.918;2022-12-18T15:20:31;94480.31;;;5.16;78.58
40592;BME280;26301;42.832;23.918;2022-12-18T15:22:58;94453.88;;;4.92;78.91